sensor_id;sensor_type;location;lat;lon;timestamp;P1;durP1;ratioP1;P2;durP2;ratioP2
78732;SDS011;68056;52.530;5.454;2024-03-08T00:01:47;9.57;;;6.15;;
78732;SDS011;68056;52.530;5.454;2024-03-08T00:04:13;12.50;;;6.85;;
78732;SDS011;68056;52.530;5.454;2024-03-08T00:06:40;10.50;;;6.97;;
78732;SDS011;68056;52.530;5.454;2024-03-08T00:09:06;13.30;;;7.60;;
78732;SDS011;68056;52.530;5.454;2024-03-08T00:11:33;11.90;;;6.90;;
78732;SDS011;68056;52.530;5.454;2024-03-08T00:13:59;9.88;;;6.30;;
78732;SDS011;68056;52.530;5.454;2024-03-08T00:16:25;9.93;;;5.97;;
78732;SDS011;68056;52.530;5.454;2024-03-08T00:18:51;14.00;;;7.32;;
78732;SDS011;68056;52.530;5.454;2024-03-08T00:21:16;11.13;;;6.18;;
78732;SDS011;68056;52.530;5.454;2024-03-08T00:23:42;9.45;;;6.00;;
78732;SDS011;68056;52.530;5.454;2024-03-08T00:26:08;10.70;;;7.50;;
78732;SDS011;68056;52.530;5.454;2024-03-08T00:28:33;11.93;;;7.30;;
78732;SDS011;68056;52.530;5.454;2024-03-08T00:30:59;7.38;;;5.72;;
78732;SDS011;68056;52.530;5.454;2024-03-08T00:33:25;13.98;;;8.00;;
78732;SDS011;68056;52.530;5.454;2024-03-08T00:35:52;10.05;;;7.18;;
78732;SDS011;68056;52.530;5.454;2024-03-08T00:38:18;12.27;;;6.40;;
78732;SDS011;68056;52.530;5.454;2024-03-08T00:40:44;10.25;;;5.90;;
78732;SDS011;68056;52.530;5.454;2024-03-08T00:43:10;9.80;;;7.07;;
78732;SDS011;68056;52.530;5.454;2024-03-08T00:45:36;10.70;;;6.38;;
78732;SDS011;68056;52.530;5.454;2024-03-08T00:48:07;10.85;;;6.53;;
78732;SDS011;68056;52.530;5.454;2024-03-08T00:50:33;12.05;;;6.53;;
78732;SDS011;68056;52.530;5.454;2024-03-08T00:52:59;9.23;;;6.07;;
78732;SDS011;68056;52.530;5.454;2024-03-08T00:55:25;10.32;;;7.00;;
78732;SDS011;68056;52.530;5.454;2024-03-08T00:57:50;11.45;;;6.68;;
78732;SDS011;68056;52.530;5.454;2024-03-08T01:00:18;8.93;;;5.68;;
78732;SDS011;68056;52.530;5.454;2024-03-08T01:02:44;9.75;;;6.55;;
78732;SDS011;68056;52.530;5.454;2024-03-08T01:05:10;8.45;;;5.57;;
78732;SDS011;68056;52.530;5.454;2024-03-08T01:10:26;11.27;;;5.65;;
78732;SDS011;68056;52.530;5.454;2024-03-08T01:12:54;10.73;;;6.70;;
78732;SDS011;68056;52.530;5.454;2024-03-08T01:15:21;9.45;;;6.50;;
78732;SDS011;68056;52.530;5.454;2024-03-08T01:17:48;10.30;;;6.93;;
78732;SDS011;68056;52.530;5.454;2024-03-08T01:20:13;11.02;;;6.53;;
78732;SDS011;68056;52.530;5.454;2024-03-08T01:22:40;9.75;;;6.63;;
78732;SDS011;68056;52.530;5.454;2024-03-08T01:25:06;9.32;;;5.82;;
78732;SDS011;68056;52.530;5.454;2024-03-08T01:27:34;12.60;;;7.68;;
78732;SDS011;68056;52.530;5.454;2024-03-08T01:30:01;11.15;;;6.32;;
78732;SDS011;68056;52.530;5.454;2024-03-08T01:32:28;9.02;;;5.88;;
78732;SDS011;68056;52.530;5.454;2024-03-08T01:34:54;10.25;;;6.50;;
78732;SDS011;68056;52.530;5.454;2024-03-08T01:37:19;13.15;;;6.20;;
78732;SDS011;68056;52.530;5.454;2024-03-08T01:39:45;10.85;;;7.45;;
78732;SDS011;68056;52.530;5.454;2024-03-08T01:42:11;10.63;;;7.07;;
78732;SDS011;68056;52.530;5.454;2024-03-08T01:44:41;11.20;;;6.72;;
78732;SDS011;68056;52.530;5.454;2024-03-08T01:47:08;11.27;;;6.63;;
78732;SDS011;68056;52.530;5.454;2024-03-08T01:49:34;12.07;;;6.55;;
78732;SDS011;68056;52.530;5.454;2024-03-08T01:51:59;10.20;;;7.57;;
78732;SDS011;68056;52.530;5.454;2024-03-08T01:54:27;9.13;;;6.28;;
78732;SDS011;68056;52.530;5.454;2024-03-08T01:56:52;12.55;;;6.00;;
78732;SDS011;68056;52.530;5.454;2024-03-08T01:59:18;9.27;;;6.25;;
78732;SDS011;68056;52.530;5.454;2024-03-08T02:01:44;9.27;;;6.70;;
78732;SDS011;68056;52.530;5.454;2024-03-08T02:04:10;9.45;;;5.90;;
78732;SDS011;68056;52.530;5.454;2024-03-08T02:06:36;11.77;;;6.53;;
78732;SDS011;68056;52.530;5.454;2024-03-08T02:09:02;8.75;;;5.75;;
78732;SDS011;68056;52.530;5.454;2024-03-08T02:11:31;10.68;;;6.85;;
78732;SDS011;68056;52.530;5.454;2024-03-08T02:13:57;10.40;;;6.57;;
78732;SDS011;68056;52.530;5.454;2024-03-08T02:16:23;9.10;;;5.85;;
78732;SDS011;68056;52.530;5.454;2024-03-08T02:18:49;12.23;;;6.18;;
78732;SDS011;68056;52.530;5.454;2024-03-08T02:21:23;11.57;;;7.55;;
78732;SDS011;68056;52.530;5.454;2024-03-08T02:23:58;13.23;;;7.07;;
78732;SDS011;68056;52.530;5.454;2024-03-08T02:26:24;15.38;;;7.45;;
78732;SDS011;68056;52.530;5.454;2024-03-08T02:29:11;13.10;;;7.78;;
78732;SDS011;68056;52.530;5.454;2024-03-08T02:31:46;17.40;;;8.90;;
78732;SDS011;68056;52.530;5.454;2024-03-08T02:34:11;8.90;;;6.57;;
78732;SDS011;68056;52.530;5.454;2024-03-08T02:36:37;10.70;;;6.63;;
78732;SDS011;68056;52.530;5.454;2024-03-08T02:39:03;10.02;;;6.53;;
78732;SDS011;68056;52.530;5.454;2024-03-08T02:41:30;12.77;;;6.40;;
78732;SDS011;68056;52.530;5.454;2024-03-08T02:43:55;10.25;;;6.55;;
78732;SDS011;68056;52.530;5.454;2024-03-08T02:46:21;12.77;;;7.55;;
78732;SDS011;68056;52.530;5.454;2024-03-08T02:48:47;10.15;;;6.28;;
78732;SDS011;68056;52.530;5.454;2024-03-08T02:51:12;7.47;;;5.82;;
78732;SDS011;68056;52.530;5.454;2024-03-08T02:53:38;14.95;;;7.97;;
78732;SDS011;68056;52.530;5.454;2024-03-08T02:56:04;9.00;;;6.55;;
78732;SDS011;68056;52.530;5.454;2024-03-08T02:58:33;12.10;;;7.47;;
78732;SDS011;68056;52.530;5.454;2024-03-08T03:00:59;16.30;;;8.32;;
78732;SDS011;68056;52.530;5.454;2024-03-08T03:03:24;12.45;;;7.88;;
78732;SDS011;68056;52.530;5.454;2024-03-08T03:05:51;14.68;;;7.53;;
78732;SDS011;68056;52.530;5.454;2024-03-08T03:08:20;13.50;;;8.05;;
78732;SDS011;68056;52.530;5.454;2024-03-08T03:10:46;13.73;;;7.90;;
78732;SDS011;68056;52.530;5.454;2024-03-08T03:13:11;10.65;;;6.95;;
78732;SDS011;68056;52.530;5.454;2024-03-08T03:15:37;10.00;;;6.43;;
78732;SDS011;68056;52.530;5.454;2024-03-08T03:18:03;17.35;;;8.48;;
78732;SDS011;68056;52.530;5.454;2024-03-08T03:20:29;11.88;;;8.15;;
78732;SDS011;68056;52.530;5.454;2024-03-08T03:23:02;13.13;;;7.78;;
78732;SDS011;68056;52.530;5.454;2024-03-08T03:25:28;15.05;;;8.00;;
78732;SDS011;68056;52.530;5.454;2024-03-08T03:27:58;10.95;;;6.78;;
78732;SDS011;68056;52.530;5.454;2024-03-08T03:30:24;8.40;;;5.93;;
78732;SDS011;68056;52.530;5.454;2024-03-08T03:32:52;9.38;;;6.53;;
78732;SDS011;68056;52.530;5.454;2024-03-08T03:35:19;12.35;;;6.57;;
78732;SDS011;68056;52.530;5.454;2024-03-08T03:37:46;17.00;;;9.25;;
78732;SDS011;68056;52.530;5.454;2024-03-08T03:40:31;10.80;;;6.68;;
78732;SDS011;68056;52.530;5.454;2024-03-08T03:43:00;18.65;;;9.20;;
78732;SDS011;68056;52.530;5.454;2024-03-08T03:45:26;10.77;;;7.80;;
78732;SDS011;68056;52.530;5.454;2024-03-08T03:47:52;13.80;;;8.27;;
78732;SDS011;68056;52.530;5.454;2024-03-08T03:50:18;11.82;;;7.38;;
78732;SDS011;68056;52.530;5.454;2024-03-08T03:52:50;13.45;;;7.95;;
78732;SDS011;68056;52.530;5.454;2024-03-08T03:55:15;13.18;;;6.68;;
78732;SDS011;68056;52.530;5.454;2024-03-08T03:57:41;11.75;;;7.25;;
78732;SDS011;68056;52.530;5.454;2024-03-08T04:00:07;8.88;;;6.70;;
78732;SDS011;68056;52.530;5.454;2024-03-08T04:02:39;10.57;;;6.85;;
78732;SDS011;68056;52.530;5.454;2024-03-08T04:05:06;11.10;;;7.60;;
78732;SDS011;68056;52.530;5.454;2024-03-08T04:07:32;10.80;;;7.13;;
78732;SDS011;68056;52.530;5.454;2024-03-08T04:09:59;14.65;;;8.30;;
78732;SDS011;68056;52.530;5.454;2024-03-08T04:12:26;10.60;;;6.85;;
78732;SDS011;68056;52.530;5.454;2024-03-08T04:14:54;15.65;;;8.55;;
78732;SDS011;68056;52.530;5.454;2024-03-08T04:17:20;18.92;;;10.52;;
78732;SDS011;68056;52.530;5.454;2024-03-08T04:19:46;14.50;;;8.52;;
78732;SDS011;68056;52.530;5.454;2024-03-08T04:22:13;14.45;;;8.75;;
78732;SDS011;68056;52.530;5.454;2024-03-08T04:24:41;17.00;;;9.68;;
78732;SDS011;68056;52.530;5.454;2024-03-08T04:27:08;14.05;;;8.27;;
78732;SDS011;68056;52.530;5.454;2024-03-08T04:29:35;14.20;;;8.35;;
78732;SDS011;68056;52.530;5.454;2024-03-08T04:32:06;11.60;;;7.70;;
78732;SDS011;68056;52.530;5.454;2024-03-08T04:34:33;10.25;;;6.82;;
78732;SDS011;68056;52.530;5.454;2024-03-08T04:37:02;13.73;;;9.00;;
78732;SDS011;68056;52.530;5.454;2024-03-08T04:39:29;11.82;;;7.78;;
78732;SDS011;68056;52.530;5.454;2024-03-08T04:41:57;11.95;;;7.22;;
78732;SDS011;68056;52.530;5.454;2024-03-08T04:44:26;11.90;;;7.18;;
78732;SDS011;68056;52.530;5.454;2024-03-08T04:46:51;19.05;;;10.38;;
78732;SDS011;68056;52.530;5.454;2024-03-08T04:49:17;10.98;;;6.72;;
78732;SDS011;68056;52.530;5.454;2024-03-08T04:51:43;12.45;;;7.30;;
78732;SDS011;68056;52.530;5.454;2024-03-08T04:54:10;10.88;;;7.80;;
78732;SDS011;68056;52.530;5.454;2024-03-08T04:56:35;13.15;;;7.65;;
78732;SDS011;68056;52.530;5.454;2024-03-08T04:59:01;13.43;;;7.88;;
78732;SDS011;68056;52.530;5.454;2024-03-08T05:01:26;13.00;;;8.63;;
78732;SDS011;68056;52.530;5.454;2024-03-08T05:03:52;12.63;;;7.53;;
78732;SDS011;68056;52.530;5.454;2024-03-08T05:08:45;17.73;;;8.55;;
78732;SDS011;68056;52.530;5.454;2024-03-08T05:11:11;10.60;;;6.55;;
78732;SDS011;68056;52.530;5.454;2024-03-08T05:13:40;12.73;;;8.48;;
78732;SDS011;68056;52.530;5.454;2024-03-08T05:16:06;9.38;;;6.28;;
78732;SDS011;68056;52.530;5.454;2024-03-08T05:18:44;15.38;;;9.30;;
78732;SDS011;68056;52.530;5.454;2024-03-08T05:21:11;13.23;;;8.18;;
78732;SDS011;68056;52.530;5.454;2024-03-08T05:23:38;11.73;;;7.82;;
78732;SDS011;68056;52.530;5.454;2024-03-08T05:26:17;13.90;;;7.68;;
78732;SDS011;68056;52.530;5.454;2024-03-08T05:28:42;10.70;;;7.15;;
78732;SDS011;68056;52.530;5.454;2024-03-08T05:31:08;12.73;;;8.07;;
78732;SDS011;68056;52.530;5.454;2024-03-08T05:33:34;11.50;;;7.47;;
78732;SDS011;68056;52.530;5.454;2024-03-08T05:36:00;15.88;;;8.73;;
78732;SDS011;68056;52.530;5.454;2024-03-08T05:38:27;13.98;;;8.40;;
78732;SDS011;68056;52.530;5.454;2024-03-08T05:40:57;14.98;;;8.85;;
78732;SDS011;68056;52.530;5.454;2024-03-08T05:43:22;11.13;;;7.90;;
78732;SDS011;68056;52.530;5.454;2024-03-08T05:45:48;13.93;;;9.00;;
78732;SDS011;68056;52.530;5.454;2024-03-08T05:48:14;11.00;;;7.32;;
78732;SDS011;68056;52.530;5.454;2024-03-08T05:50:40;11.18;;;7.38;;
78732;SDS011;68056;52.530;5.454;2024-03-08T05:53:08;12.15;;;7.03;;
78732;SDS011;68056;52.530;5.454;2024-03-08T05:55:34;13.13;;;8.50;;
78732;SDS011;68056;52.530;5.454;2024-03-08T05:58:00;11.43;;;7.55;;
78732;SDS011;68056;52.530;5.454;2024-03-08T06:00:26;17.08;;;10.32;;
78732;SDS011;68056;52.530;5.454;2024-03-08T06:02:52;13.30;;;9.25;;
78732;SDS011;68056;52.530;5.454;2024-03-08T06:05:18;12.63;;;8.63;;
78732;SDS011;68056;52.530;5.454;2024-03-08T06:07:43;14.13;;;7.85;;
78732;SDS011;68056;52.530;5.454;2024-03-08T06:10:10;17.05;;;10.15;;
78732;SDS011;68056;52.530;5.454;2024-03-08T06:12:39;16.33;;;9.65;;
78732;SDS011;68056;52.530;5.454;2024-03-08T06:15:06;14.20;;;8.05;;
78732;SDS011;68056;52.530;5.454;2024-03-08T06:17:34;17.15;;;10.43;;
78732;SDS011;68056;52.530;5.454;2024-03-08T06:20:00;14.45;;;8.88;;
78732;SDS011;68056;52.530;5.454;2024-03-08T06:22:25;13.18;;;7.97;;
78732;SDS011;68056;52.530;5.454;2024-03-08T06:24:51;20.40;;;10.15;;
78732;SDS011;68056;52.530;5.454;2024-03-08T06:27:19;16.45;;;8.77;;
78732;SDS011;68056;52.530;5.454;2024-03-08T06:29:44;16.95;;;9.25;;
78732;SDS011;68056;52.530;5.454;2024-03-08T06:32:10;13.13;;;9.18;;
78732;SDS011;68056;52.530;5.454;2024-03-08T06:34:35;14.50;;;8.70;;
78732;SDS011;68056;52.530;5.454;2024-03-08T06:37:01;15.40;;;9.85;;
78732;SDS011;68056;52.530;5.454;2024-03-08T06:39:27;13.50;;;9.40;;
78732;SDS011;68056;52.530;5.454;2024-03-08T06:41:56;12.20;;;7.93;;
78732;SDS011;68056;52.530;5.454;2024-03-08T06:44:22;12.80;;;9.05;;
78732;SDS011;68056;52.530;5.454;2024-03-08T06:46:48;16.67;;;9.55;;
78732;SDS011;68056;52.530;5.454;2024-03-08T06:49:14;15.52;;;9.85;;
78732;SDS011;68056;52.530;5.454;2024-03-08T06:51:40;14.10;;;9.25;;
78732;SDS011;68056;52.530;5.454;2024-03-08T06:54:06;19.15;;;10.07;;
78732;SDS011;68056;52.530;5.454;2024-03-08T06:56:34;18.45;;;11.45;;
78732;SDS011;68056;52.530;5.454;2024-03-08T06:59:00;16.98;;;10.00;;
78732;SDS011;68056;52.530;5.454;2024-03-08T07:01:28;17.85;;;10.63;;
78732;SDS011;68056;52.530;5.454;2024-03-08T07:03:56;19.80;;;11.63;;
78732;SDS011;68056;52.530;5.454;2024-03-08T07:06:22;15.18;;;9.70;;
78732;SDS011;68056;52.530;5.454;2024-03-08T07:08:48;13.02;;;8.70;;
78732;SDS011;68056;52.530;5.454;2024-03-08T07:11:14;16.05;;;9.15;;
78732;SDS011;68056;52.530;5.454;2024-03-08T07:13:43;16.20;;;9.25;;
78732;SDS011;68056;52.530;5.454;2024-03-08T07:16:11;13.38;;;8.57;;
78732;SDS011;68056;52.530;5.454;2024-03-08T07:18:37;16.55;;;10.02;;
78732;SDS011;68056;52.530;5.454;2024-03-08T07:21:04;18.92;;;12.13;;
78732;SDS011;68056;52.530;5.454;2024-03-08T07:23:30;17.92;;;9.80;;
78732;SDS011;68056;52.530;5.454;2024-03-08T07:26:14;16.00;;;10.20;;
78732;SDS011;68056;52.530;5.454;2024-03-08T07:28:41;14.52;;;10.52;;
78732;SDS011;68056;52.530;5.454;2024-03-08T07:31:07;16.23;;;10.10;;
78732;SDS011;68056;52.530;5.454;2024-03-08T07:33:35;21.45;;;11.48;;
78732;SDS011;68056;52.530;5.454;2024-03-08T07:36:00;19.42;;;10.48;;
78732;SDS011;68056;52.530;5.454;2024-03-08T07:38:26;17.48;;;10.55;;
78732;SDS011;68056;52.530;5.454;2024-03-08T07:40:51;16.77;;;9.68;;
78732;SDS011;68056;52.530;5.454;2024-03-08T07:43:17;17.27;;;11.07;;
78732;SDS011;68056;52.530;5.454;2024-03-08T07:45:43;16.52;;;10.80;;
78732;SDS011;68056;52.530;5.454;2024-03-08T07:48:08;20.05;;;11.52;;
78732;SDS011;68056;52.530;5.454;2024-03-08T07:50:38;20.10;;;11.70;;
78732;SDS011;68056;52.530;5.454;2024-03-08T07:53:04;17.08;;;10.02;;
78732;SDS011;68056;52.530;5.454;2024-03-08T07:55:33;16.25;;;10.55;;
78732;SDS011;68056;52.530;5.454;2024-03-08T07:58:00;15.40;;;10.30;;
78732;SDS011;68056;52.530;5.454;2024-03-08T08:00:26;14.70;;;9.98;;
78732;SDS011;68056;52.530;5.454;2024-03-08T08:02:52;18.50;;;10.27;;
78732;SDS011;68056;52.530;5.454;2024-03-08T08:05:18;14.70;;;10.45;;
78732;SDS011;68056;52.530;5.454;2024-03-08T08:07:45;13.75;;;9.30;;
78732;SDS011;68056;52.530;5.454;2024-03-08T08:10:14;18.98;;;11.65;;
78732;SDS011;68056;52.530;5.454;2024-03-08T08:12:46;17.80;;;11.00;;
78732;SDS011;68056;52.530;5.454;2024-03-08T08:15:13;18.73;;;12.98;;
78732;SDS011;68056;52.530;5.454;2024-03-08T08:17:40;16.58;;;10.68;;
78732;SDS011;68056;52.530;5.454;2024-03-08T08:20:10;15.57;;;10.00;;
78732;SDS011;68056;52.530;5.454;2024-03-08T08:25:04;17.73;;;10.05;;
78732;SDS011;68056;52.530;5.454;2024-03-08T08:27:29;15.20;;;10.23;;
78732;SDS011;68056;52.530;5.454;2024-03-08T08:29:55;18.88;;;11.32;;
78732;SDS011;68056;52.530;5.454;2024-03-08T08:32:21;15.15;;;9.40;;
78732;SDS011;68056;52.530;5.454;2024-03-08T08:34:47;16.98;;;11.23;;
78732;SDS011;68056;52.530;5.454;2024-03-08T08:37:13;14.75;;;9.93;;
78732;SDS011;68056;52.530;5.454;2024-03-08T08:39:38;18.85;;;10.80;;
78732;SDS011;68056;52.530;5.454;2024-03-08T08:42:04;19.35;;;11.52;;
78732;SDS011;68056;52.530;5.454;2024-03-08T08:44:30;21.02;;;12.50;;
78732;SDS011;68056;52.530;5.454;2024-03-08T08:46:59;20.65;;;12.60;;
78732;SDS011;68056;52.530;5.454;2024-03-08T08:49:25;18.83;;;13.45;;
78732;SDS011;68056;52.530;5.454;2024-03-08T08:51:51;18.70;;;11.02;;
78732;SDS011;68056;52.530;5.454;2024-03-08T08:54:17;18.55;;;12.15;;
78732;SDS011;68056;52.530;5.454;2024-03-08T08:56:43;14.98;;;10.80;;
78732;SDS011;68056;52.530;5.454;2024-03-08T08:59:14;17.98;;;11.40;;
78732;SDS011;68056;52.530;5.454;2024-03-08T09:01:41;19.58;;;11.35;;
78732;SDS011;68056;52.530;5.454;2024-03-08T09:04:06;18.23;;;10.88;;
78732;SDS011;68056;52.530;5.454;2024-03-08T09:06:33;18.27;;;11.38;;
78732;SDS011;68056;52.530;5.454;2024-03-08T09:08:59;21.67;;;12.35;;
78732;SDS011;68056;52.530;5.454;2024-03-08T09:11:24;19.55;;;12.20;;
78732;SDS011;68056;52.530;5.454;2024-03-08T09:13:52;17.60;;;11.23;;
78732;SDS011;68056;52.530;5.454;2024-03-08T09:16:18;17.23;;;11.35;;
78732;SDS011;68056;52.530;5.454;2024-03-08T09:18:43;18.45;;;11.52;;
78732;SDS011;68056;52.530;5.454;2024-03-08T09:21:09;16.67;;;11.57;;
78732;SDS011;68056;52.530;5.454;2024-03-08T09:23:35;19.27;;;11.77;;
78732;SDS011;68056;52.530;5.454;2024-03-08T09:26:01;19.95;;;12.57;;
78732;SDS011;68056;52.530;5.454;2024-03-08T09:28:28;17.63;;;11.88;;
78732;SDS011;68056;52.530;5.454;2024-03-08T09:30:54;16.73;;;11.98;;
78732;SDS011;68056;52.530;5.454;2024-03-08T09:33:20;19.75;;;12.45;;
78732;SDS011;68056;52.530;5.454;2024-03-08T09:35:46;18.80;;;12.68;;
78732;SDS011;68056;52.530;5.454;2024-03-08T09:38:13;16.52;;;11.68;;
78732;SDS011;68056;52.530;5.454;2024-03-08T09:40:42;14.73;;;11.00;;
78732;SDS011;68056;52.530;5.454;2024-03-08T09:43:11;17.88;;;12.32;;
78732;SDS011;68056;52.530;5.454;2024-03-08T09:45:36;18.27;;;11.73;;
78732;SDS011;68056;52.530;5.454;2024-03-08T09:48:05;17.58;;;11.02;;
78732;SDS011;68056;52.530;5.454;2024-03-08T09:50:37;19.33;;;12.57;;
78732;SDS011;68056;52.530;5.454;2024-03-08T09:53:03;17.15;;;10.98;;
78732;SDS011;68056;52.530;5.454;2024-03-08T09:55:29;18.00;;;12.52;;
78732;SDS011;68056;52.530;5.454;2024-03-08T09:58:00;20.75;;;12.45;;
78732;SDS011;68056;52.530;5.454;2024-03-08T10:00:48;17.40;;;11.38;;
78732;SDS011;68056;52.530;5.454;2024-03-08T10:03:14;20.20;;;12.30;;
78732;SDS011;68056;52.530;5.454;2024-03-08T10:05:43;18.35;;;11.90;;
78732;SDS011;68056;52.530;5.454;2024-03-08T10:08:09;16.08;;;10.82;;
78732;SDS011;68056;52.530;5.454;2024-03-08T10:10:37;16.63;;;11.40;;
78732;SDS011;68056;52.530;5.454;2024-03-08T10:13:06;15.00;;;11.18;;
78732;SDS011;68056;52.530;5.454;2024-03-08T10:15:32;16.17;;;10.13;;
78732;SDS011;68056;52.530;5.454;2024-03-08T10:17:58;16.45;;;10.60;;
78732;SDS011;68056;52.530;5.454;2024-03-08T10:20:24;16.15;;;10.90;;
78732;SDS011;68056;52.530;5.454;2024-03-08T10:22:51;14.95;;;10.00;;
78732;SDS011;68056;52.530;5.454;2024-03-08T10:25:18;18.10;;;11.48;;
78732;SDS011;68056;52.530;5.454;2024-03-08T10:27:44;15.98;;;10.32;;
78732;SDS011;68056;52.530;5.454;2024-03-08T10:30:10;16.42;;;11.30;;
78732;SDS011;68056;52.530;5.454;2024-03-08T10:32:39;16.77;;;10.73;;
78732;SDS011;68056;52.530;5.454;2024-03-08T10:35:06;17.33;;;10.57;;
78732;SDS011;68056;52.530;5.454;2024-03-08T10:37:33;18.85;;;11.70;;
78732;SDS011;68056;52.530;5.454;2024-03-08T10:40:07;14.07;;;10.18;;
78732;SDS011;68056;52.530;5.454;2024-03-08T10:42:41;16.83;;;11.15;;
78732;SDS011;68056;52.530;5.454;2024-03-08T10:47:50;15.50;;;11.00;;
78732;SDS011;68056;52.530;5.454;2024-03-08T10:50:29;17.13;;;12.10;;
78732;SDS011;68056;52.530;5.454;2024-03-08T10:52:59;12.70;;;9.63;;
78732;SDS011;68056;52.530;5.454;2024-03-08T10:55:26;15.20;;;9.63;;
78732;SDS011;68056;52.530;5.454;2024-03-08T10:57:53;15.32;;;10.52;;
78732;SDS011;68056;52.530;5.454;2024-03-08T11:00:19;15.98;;;11.07;;
78732;SDS011;68056;52.530;5.454;2024-03-08T11:02:51;17.30;;;11.20;;
78732;SDS011;68056;52.530;5.454;2024-03-08T11:05:38;16.05;;;11.10;;
78732;SDS011;68056;52.530;5.454;2024-03-08T11:08:06;16.05;;;10.85;;
78732;SDS011;68056;52.530;5.454;2024-03-08T11:10:53;16.05;;;10.75;;
78732;SDS011;68056;52.530;5.454;2024-03-08T11:13:42;16.52;;;11.43;;
78732;SDS011;68056;52.530;5.454;2024-03-08T11:16:10;18.48;;;11.95;;
78732;SDS011;68056;52.530;5.454;2024-03-08T11:19:00;17.60;;;11.20;;
78732;SDS011;68056;52.530;5.454;2024-03-08T11:21:33;16.60;;;11.27;;
78732;SDS011;68056;52.530;5.454;2024-03-08T11:23:59;14.90;;;9.90;;
78732;SDS011;68056;52.530;5.454;2024-03-08T11:26:32;15.63;;;10.88;;
78732;SDS011;68056;52.530;5.454;2024-03-08T11:34:35;14.93;;;10.85;;
78732;SDS011;68056;52.530;5.454;2024-03-08T11:37:00;16.35;;;10.35;;
78732;SDS011;68056;52.530;5.454;2024-03-08T11:39:28;15.88;;;10.75;;
78732;SDS011;68056;52.530;5.454;2024-03-08T11:41:55;17.45;;;11.35;;
78732;SDS011;68056;52.530;5.454;2024-03-08T11:44:21;16.70;;;11.43;;
78732;SDS011;68056;52.530;5.454;2024-03-08T11:46:52;15.07;;;10.98;;
78732;SDS011;68056;52.530;5.454;2024-03-08T11:49:18;14.70;;;10.93;;
78732;SDS011;68056;52.530;5.454;2024-03-08T11:51:44;16.00;;;11.20;;
78732;SDS011;68056;52.530;5.454;2024-03-08T11:54:11;15.20;;;10.60;;
78732;SDS011;68056;52.530;5.454;2024-03-08T11:59:03;13.00;;;10.07;;
78732;SDS011;68056;52.530;5.454;2024-03-08T12:01:30;15.85;;;10.95;;
78732;SDS011;68056;52.530;5.454;2024-03-08T12:03:56;14.95;;;10.32;;
78732;SDS011;68056;52.530;5.454;2024-03-08T12:06:24;17.70;;;11.90;;
78732;SDS011;68056;52.530;5.454;2024-03-08T12:09:01;15.93;;;10.63;;
78732;SDS011;68056;52.530;5.454;2024-03-08T12:11:27;15.40;;;10.93;;
78732;SDS011;68056;52.530;5.454;2024-03-08T12:13:53;15.27;;;11.85;;
78732;SDS011;68056;52.530;5.454;2024-03-08T12:16:19;14.98;;;11.80;;
78732;SDS011;68056;52.530;5.454;2024-03-08T12:18:46;14.63;;;10.88;;
78732;SDS011;68056;52.530;5.454;2024-03-08T12:21:15;18.42;;;11.85;;
78732;SDS011;68056;52.530;5.454;2024-03-08T12:23:44;14.85;;;10.63;;
78732;SDS011;68056;52.530;5.454;2024-03-08T12:28:41;12.57;;;9.48;;
78732;SDS011;68056;52.530;5.454;2024-03-08T12:31:09;14.68;;;11.10;;
78732;SDS011;68056;52.530;5.454;2024-03-08T12:33:49;13.55;;;9.18;;
78732;SDS011;68056;52.530;5.454;2024-03-08T12:36:16;14.90;;;9.82;;
78732;SDS011;68056;52.530;5.454;2024-03-08T12:38:45;16.00;;;11.50;;
78732;SDS011;68056;52.530;5.454;2024-03-08T12:41:18;12.95;;;9.23;;
78732;SDS011;68056;52.530;5.454;2024-03-08T12:43:44;12.90;;;8.77;;
78732;SDS011;68056;52.530;5.454;2024-03-08T12:46:20;15.43;;;10.98;;
78732;SDS011;68056;52.530;5.454;2024-03-08T12:48:46;12.85;;;9.57;;
78732;SDS011;68056;52.530;5.454;2024-03-08T12:51:13;16.40;;;11.18;;
78732;SDS011;68056;52.530;5.454;2024-03-08T12:53:40;16.13;;;11.02;;
78732;SDS011;68056;52.530;5.454;2024-03-08T12:56:10;14.68;;;10.77;;
78732;SDS011;68056;52.530;5.454;2024-03-08T12:58:44;15.77;;;11.02;;
78732;SDS011;68056;52.530;5.454;2024-03-08T13:01:10;15.35;;;10.60;;
78732;SDS011;68056;52.530;5.454;2024-03-08T13:03:38;14.60;;;10.82;;
78732;SDS011;68056;52.530;5.454;2024-03-08T13:06:04;12.55;;;10.13;;
78732;SDS011;68056;52.530;5.454;2024-03-08T13:08:33;14.48;;;9.90;;
78732;SDS011;68056;52.530;5.454;2024-03-08T13:11:05;15.30;;;11.10;;
78732;SDS011;68056;52.530;5.454;2024-03-08T13:13:32;13.32;;;10.20;;
78732;SDS011;68056;52.530;5.454;2024-03-08T13:16:00;12.27;;;9.60;;
78732;SDS011;68056;52.530;5.454;2024-03-08T13:18:26;14.13;;;9.95;;
78732;SDS011;68056;52.530;5.454;2024-03-08T13:20:52;18.05;;;11.25;;
78732;SDS011;68056;52.530;5.454;2024-03-08T13:23:19;15.32;;;11.23;;
78732;SDS011;68056;52.530;5.454;2024-03-08T13:25:45;15.68;;;10.85;;
78732;SDS011;68056;52.530;5.454;2024-03-08T13:28:12;15.65;;;10.40;;
78732;SDS011;68056;52.530;5.454;2024-03-08T13:30:38;13.20;;;9.15;;
78732;SDS011;68056;52.530;5.454;2024-03-08T13:33:04;17.77;;;10.90;;
78732;SDS011;68056;52.530;5.454;2024-03-08T13:35:30;16.90;;;10.75;;
78732;SDS011;68056;52.530;5.454;2024-03-08T13:37:57;17.35;;;11.48;;
78732;SDS011;68056;52.530;5.454;2024-03-08T13:40:23;14.93;;;11.25;;
78732;SDS011;68056;52.530;5.454;2024-03-08T13:42:48;14.82;;;10.13;;
78732;SDS011;68056;52.530;5.454;2024-03-08T13:45:14;16.73;;;11.98;;
78732;SDS011;68056;52.530;5.454;2024-03-08T13:47:48;13.45;;;9.40;;
78732;SDS011;68056;52.530;5.454;2024-03-08T13:50:16;15.25;;;10.60;;
78732;SDS011;68056;52.530;5.454;2024-03-08T13:52:46;12.68;;;9.70;;
78732;SDS011;68056;52.530;5.454;2024-03-08T13:55:14;16.40;;;10.75;;
78732;SDS011;68056;52.530;5.454;2024-03-08T13:57:40;13.10;;;10.10;;
78732;SDS011;68056;52.530;5.454;2024-03-08T14:00:05;12.52;;;9.43;;
78732;SDS011;68056;52.530;5.454;2024-03-08T14:02:32;13.07;;;9.35;;
78732;SDS011;68056;52.530;5.454;2024-03-08T14:04:58;18.38;;;12.00;;
78732;SDS011;68056;52.530;5.454;2024-03-08T14:07:27;15.38;;;11.55;;
78732;SDS011;68056;52.530;5.454;2024-03-08T14:09:54;12.77;;;9.65;;
78732;SDS011;68056;52.530;5.454;2024-03-08T14:12:20;13.43;;;9.02;;
78732;SDS011;68056;52.530;5.454;2024-03-08T14:14:45;12.35;;;8.88;;
78732;SDS011;68056;52.530;5.454;2024-03-08T14:17:11;15.00;;;10.15;;
78732;SDS011;68056;52.530;5.454;2024-03-08T14:19:41;14.75;;;10.38;;
78732;SDS011;68056;52.530;5.454;2024-03-08T14:22:07;13.45;;;9.73;;
78732;SDS011;68056;52.530;5.454;2024-03-08T14:24:35;12.02;;;8.73;;
78732;SDS011;68056;52.530;5.454;2024-03-08T14:27:01;14.60;;;9.70;;
78732;SDS011;68056;52.530;5.454;2024-03-08T14:29:28;14.38;;;9.80;;
78732;SDS011;68056;52.530;5.454;2024-03-08T14:31:57;16.30;;;11.68;;
78732;SDS011;68056;52.530;5.454;2024-03-08T14:34:24;13.73;;;9.95;;
78732;SDS011;68056;52.530;5.454;2024-03-08T14:36:52;14.70;;;11.10;;
78732;SDS011;68056;52.530;5.454;2024-03-08T14:39:18;15.90;;;10.70;;
78732;SDS011;68056;52.530;5.454;2024-03-08T14:41:47;13.30;;;9.63;;
78732;SDS011;68056;52.530;5.454;2024-03-08T14:44:13;15.43;;;11.30;;
78732;SDS011;68056;52.530;5.454;2024-03-08T14:46:38;21.60;;;10.68;;
78732;SDS011;68056;52.530;5.454;2024-03-08T14:49:05;13.55;;;9.80;;
78732;SDS011;68056;52.530;5.454;2024-03-08T14:51:31;12.98;;;10.07;;
78732;SDS011;68056;52.530;5.454;2024-03-08T14:56:23;11.07;;;7.70;;